Time;durP1;ratioP1;P1;durP2;ratioP2;P2;SDS_P1;SDS_P2;PMS_P1;PMS_P2;Temp;Humidity;BMP_temperature;BMP_pressure;BME280_temperature;BME280_humidity;BME280_pressure;Samples;Min_cycle;Max_cycle;Signal;HPM_P1;HPM_P2
2022/09/26 00:02:22;;;;;;;8.40;7.17;;;19.10;60.40;;;;;;5001629;28;20197;-47
2022/09/26 00:04:49;;;;;;;8.17;7.17;;;19.10;61.10;;;;;;5002228;28;20201;-47
2022/09/26 00:07:14;;;;;;;8.03;7.33;;;19.00;60.10;;;;;;5000833;28;20200;-47
2022/09/26 00:09:40;;;;;;;9.10;7.27;;;19.00;60.20;;;;;;5005793;28;20441;-47
2022/09/26 00:12:06;;;;;;;11.30;6.97;;;19.00;60.20;;;;;;5006914;28;20642;-47
2022/09/26 00:14:32;;;;;;;7.83;7.00;;;19.10;60.20;;;;;;5006109;28;20829;-47
2022/09/26 00:16:58;;;;;;;7.80;6.90;;;19.10;60.20;;;;;;5010405;28;20449;-46
2022/09/26 00:19:24;;;;;;;6.93;6.23;;;19.00;60.00;;;;;;5004561;28;20500;-48
2022/09/26 00:21:49;;;;;;;7.37;6.20;;;19.00;60.10;;;;;;4999001;28;20212;-48
2022/09/26 00:24:15;;;;;;;9.30;6.60;;;19.00;60.00;;;;;;5009935;28;20495;-47
2022/09/26 00:26:41;;;;;;;7.20;6.30;;;19.00;59.90;;;;;;5014273;28;20204;-46
2022/09/26 00:29:10;;;;;;;8.30;7.37;;;19.00;59.70;;;;;;5013174;28;21241;-47
2022/09/26 00:31:44;;;;;;;7.17;6.03;;;19.00;59.50;;;;;;5009504;28;20878;-47
2022/09/26 00:34:15;;;;;;;9.57;8.40;;;18.90;59.40;;;;;;5006982;28;20451;-48
2022/09/26 00:36:41;;;;;;;10.90;7.83;;;18.90;59.40;;;;;;5006831;28;20532;-47
2022/09/26 00:39:08;;;;;;;7.50;6.80;;;18.90;59.50;;;;;;5010753;28;20595;-47
2022/09/26 00:41:34;;;;;;;9.67;7.50;;;18.90;59.60;;;;;;5009610;28;20206;-47
2022/09/26 00:44:00;;;;;;;8.40;7.53;;;18.90;59.70;;;;;;5010645;28;20520;-51
2022/09/26 00:46:40;;;;;;;10.57;7.80;;;18.90;60.00;;;;;;5007418;28;20455;-51
2022/09/26 00:49:22;;;;;;;9.70;6.87;;;18.90;60.10;;;;;;5006781;28;20202;-51
2022/09/26 00:51:56;;;;;;;7.97;7.17;;;18.90;60.00;;;;;;5005136;28;20878;-49
2022/09/26 00:54:23;;;;;;;8.30;7.40;;;18.90;60.00;;;;;;5008761;28;21050;-51
2022/09/26 00:56:53;;;;;;;9.03;7.43;;;18.90;60.00;;;;;;5009269;28;20451;-50
2022/09/26 00:59:28;;;;;;;9.33;7.93;;;18.90;60.00;;;;;;5008580;28;21170;-51
2022/09/26 01:01:56;;;;;;;8.63;7.83;;;18.90;60.00;;;;;;5006340;28;20452;-51
2022/09/26 01:04:26;;;;;;;8.23;7.43;;;18.90;59.90;;;;;;5009380;28;20598;-51
2022/09/26 01:06:54;;;;;;;9.53;7.97;;;18.90;59.90;;;;;;5011241;28;20456;-51
2022/09/26 01:09:20;;;;;;;8.80;7.97;;;18.80;60.00;;;;;;5002205;28;20451;-49
2022/09/26 01:11:45;;;;;;;9.03;8.13;;;18.80;60.10;;;;;;5009402;28;20445;-51
2022/09/26 01:14:12;;;;;;;10.03;7.00;;;18.80;60.40;;;;;;5010685;28;20440;-50
2022/09/26 01:16:39;;;;;;;14.77;8.07;;;18.80;60.50;;;;;;5010908;28;20201;-47
2022/09/26 01:19:21;;;;;;;7.73;7.00;;;18.70;60.50;;;;;;5012022;28;20476;-47
2022/09/26 01:22:18;;;;;;;7.90;7.10;;;18.70;60.80;;;;;;5004641;28;20449;-48
2022/09/26 01:24:50;;;;;;;8.50;7.03;;;18.60;60.90;;;;;;5007855;28;20823;-51
2022/09/26 01:27:46;;;;;;;8.53;7.53;;;18.60;61.20;;;;;;5009903;28;20499;-50
2022/09/26 01:30:20;;;;;;;8.47;7.40;;;18.60;61.40;;;;;;4985179;28;20459;-52
2022/09/26 01:33:06;;;;;;;15.67;7.80;;;18.60;61.30;;;;;;5010996;28;20460;-50
2022/09/26 01:36:00;;;;;;;11.50;7.50;;;18.60;61.20;;;;;;5006853;28;20461;-52
2022/09/26 01:38:42;;;;;;;9.07;8.20;;;18.60;61.00;;;;;;5005259;28;20452;-52
2022/09/26 01:41:07;;;;;;;8.83;7.73;;;18.60;61.50;;;;;;5008973;28;20461;-50
2022/09/26 01:43:42;;;;;;;7.43;6.70;;;18.50;61.00;;;;;;5011841;28;20502;-48
2022/09/26 01:46:34;;;;;;;7.90;7.10;;;18.50;61.20;;;;;;5009526;28;20202;-51
2022/09/26 01:49:19;;;;;;;7.87;7.07;;;18.30;61.20;;;;;;5003817;28;20460;-51
2022/09/26 01:51:53;;;;;;;8.40;6.83;;;18.30;61.20;;;;;;5004302;28;20436;-52
2022/09/26 01:54:25;;;;;;;10.90;7.20;;;18.20;62.10;;;;;;5010226;28;20448;-51
2022/09/26 01:56:52;;;;;;;8.00;7.20;;;18.10;61.50;;;;;;5003218;28;20444;-50
2022/09/26 01:59:28;;;;;;;8.60;7.30;;;18.00;61.40;;;;;;5004824;28;20499;-52
2022/09/26 02:01:59;;;;;;;7.70;6.87;;;18.00;61.40;;;;;;5002367;28;20471;-51
2022/09/26 02:04:34;;;;;;;7.97;7.03;;;17.90;61.60;;;;;;5015702;28;20480;-50
2022/09/26 02:07:08;;;;;;;8.57;7.67;;;17.80;61.90;;;;;;5010464;28;20467;-50
2022/09/26 02:09:51;;;;;;;7.90;6.90;;;17.80;62.10;;;;;;5010905;28;20444;-48
2022/09/26 02:12:31;;;;;;;10.40;7.67;;;17.80;62.30;;;;;;5007368;28;20571;-51
2022/09/26 02:15:01;;;;;;;8.57;6.70;;;17.70;62.50;;;;;;5006208;28;20864;-49
2022/09/26 02:17:31;;;;;;;8.20;7.10;;;17.70;62.60;;;;;;5007103;28;20499;-47
2022/09/26 02:20:04;;;;;;;8.30;7.17;;;17.70;62.70;;;;;;5010800;28;20492;-47
2022/09/26 02:22:33;;;;;;;8.13;7.13;;;17.70;62.70;;;;;;5009449;28;20476;-48
2022/09/26 02:24:59;;;;;;;8.33;7.60;;;17.60;62.70;;;;;;5011375;28;20437;-46
2022/09/26 02:27:26;;;;;;;7.90;6.90;;;17.60;62.90;;;;;;5010936;28;20437;-48
2022/09/26 02:29:52;;;;;;;6.93;6.30;;;17.60;63.00;;;;;;5008466;28;20440;-47
2022/09/26 02:32:22;;;;;;;11.50;8.40;;;17.60;63.20;;;;;;5011254;28;20634;-48
2022/09/26 02:34:48;;;;;;;9.33;7.27;;;17.60;63.40;;;;;;5010476;28;20535;-47
2022/09/26 02:37:16;;;;;;;9.30;6.93;;;17.60;63.70;;;;;;5008224;28;20441;-48
2022/09/26 02:39:44;;;;;;;8.50;7.70;;;17.60;63.70;;;;;;5010375;28;20488;-47
2022/09/26 02:42:32;;;;;;;7.23;6.43;;;17.50;63.60;;;;;;5005231;28;20448;-48
2022/09/26 02:45:31;;;;;;;9.63;7.03;;;17.50;63.70;;;;;;5007350;28;20451;-49
2022/09/26 02:48:12;;;;;;;7.83;7.13;;;17.40;63.80;;;;;;4980458;28;20468;-48
2022/09/26 02:50:57;;;;;;;8.20;7.40;;;17.40;64.00;;;;;;5004241;28;20563;-49
2022/09/26 02:53:32;;;;;;;10.00;7.00;;;17.40;64.00;;;;;;5008532;28;20441;-50
2022/09/26 02:56:02;;;;;;;7.73;7.03;;;17.40;64.00;;;;;;5008759;28;20448;-51
2022/09/26 02:58:51;;;;;;;11.40;6.90;;;17.40;64.10;;;;;;5018169;28;20819;-47
2022/09/26 03:01:20;;;;;;;7.73;6.93;;;17.40;63.90;;;;;;5009360;28;20457;-48
2022/09/26 03:04:17;;;;;;;15.30;7.40;;;17.40;63.80;;;;;;5010015;28;20461;-51
2022/09/26 03:06:45;;;;;;;7.87;6.77;;;17.40;64.00;;;;;;5007475;28;20441;-51
2022/09/26 03:09:13;;;;;;;8.47;7.67;;;17.30;64.00;;;;;;5006359;28;20448;-49
2022/09/26 03:11:40;;;;;;;8.77;6.70;;;17.30;64.10;;;;;;5003280;28;20850;-47
2022/09/26 03:14:07;;;;;;;7.83;6.53;;;17.40;64.10;;;;;;5007311;28;20830;-48
2022/09/26 03:16:36;;;;;;;8.17;6.80;;;17.40;64.00;;;;;;5010060;28;20988;-47
2022/09/26 03:19:08;;;;;;;10.73;7.30;;;17.40;64.00;;;;;;5007166;28;20465;-48
2022/09/26 03:21:34;;;;;;;8.20;6.80;;;17.30;64.20;;;;;;5007980;28;20458;-48
2022/09/26 03:24:00;;;;;;;8.27;6.90;;;17.30;64.40;;;;;;5013045;28;20484;-47
2022/09/26 03:26:28;;;;;;;10.53;7.43;;;17.30;64.30;;;;;;5008233;28;20498;-50
2022/09/26 03:28:55;;;;;;;8.53;7.30;;;17.30;64.20;;;;;;5014464;28;20216;-51
2022/09/26 03:31:24;;;;;;;7.30;6.40;;;17.30;64.30;;;;;;5005842;28;20440;-47
2022/09/26 03:33:51;;;;;;;9.40;7.07;;;17.20;64.20;;;;;;5010045;28;20843;-47
2022/09/26 03:36:17;;;;;;;7.83;6.57;;;17.00;64.50;;;;;;5006922;28;20441;-52
2022/09/26 03:38:42;;;;;;;8.80;6.30;;;17.00;65.20;;;;;;5004685;28;20811;-47
2022/09/26 03:41:08;;;;;;;10.20;7.60;;;17.00;65.30;;;;;;5007356;28;20445;-47
2022/09/26 03:43:35;;;;;;;10.53;7.30;;;16.90;65.10;;;;;;5011001;28;20244;-48
2022/09/26 03:46:05;;;;;;;7.10;6.40;;;16.90;66.20;;;;;;5007701;28;20449;-50
2022/09/26 03:48:32;;;;;;;10.23;6.83;;;17.00;65.40;;;;;;5010490;28;20449;-50
2022/09/26 03:51:06;;;;;;;7.17;6.57;;;17.00;65.20;;;;;;5011390;28;20441;-52
2022/09/26 03:53:34;;;;;;;13.60;5.90;;;17.00;64.90;;;;;;5009409;28;20856;-52
2022/09/26 03:56:13;;;;;;;6.67;6.17;;;17.00;64.90;;;;;;5008314;28;20452;-52
2022/09/26 03:58:40;;;;;;;7.20;6.30;;;17.00;64.60;;;;;;5008193;28;20584;-51
2022/09/26 04:01:11;;;;;;;9.00;7.33;;;17.00;64.40;;;;;;5012449;28;20453;-50
2022/09/26 04:03:39;;;;;;;9.30;7.77;;;17.00;64.40;;;;;;5001815;28;21490;-51
2022/09/26 04:06:09;;;;;;;7.70;6.90;;;17.00;64.20;;;;;;5004084;28;20440;-52
2022/09/26 04:08:40;;;;;;;8.83;6.10;;;17.00;64.30;;;;;;5009124;28;20459;-48
2022/09/26 04:11:09;;;;;;;10.30;6.60;;;17.00;64.60;;;;;;5008651;28;20484;-52
2022/09/26 04:13:36;;;;;;;6.93;6.23;;;16.90;64.50;;;;;;5010334;28;20448;-49
2022/09/26 04:16:02;;;;;;;7.37;6.30;;;16.80;65.00;;;;;;5003978;28;20434;-49
2022/09/26 04:18:29;;;;;;;7.17;6.47;;;16.80;65.10;;;;;;5009126;28;20436;-52
2022/09/26 04:21:08;;;;;;;6.80;6.20;;;16.90;65.00;;;;;;5005855;28;20511;-48
2022/09/26 04:23:36;;;;;;;7.40;6.70;;;16.90;64.90;;;;;;5006839;28;20472;-51
2022/09/26 04:26:07;;;;;;;9.30;6.20;;;16.90;64.60;;;;;;5005887;28;20833;-50
2022/09/26 04:28:34;;;;;;;9.47;6.00;;;16.80;64.60;;;;;;5005766;28;20440;-51
2022/09/26 04:31:01;;;;;;;7.17;6.00;;;16.80;64.90;;;;;;5000502;28;20478;-49
2022/09/26 04:33:28;;;;;;;9.90;6.60;;;16.80;65.10;;;;;;4998215;28;20529;-51
2022/09/26 04:35:54;;;;;;;6.87;6.27;;;16.90;65.60;;;;;;4997999;28;20437;-48
2022/09/26 04:38:20;;;;;;;6.30;5.70;;;17.00;65.40;;;;;;5004541;28;20448;-48
2022/09/26 04:40:45;;;;;;;5.73;5.13;;;17.10;65.20;;;;;;5002770;28;20492;-52
2022/09/26 04:43:11;;;;;;;8.77;6.57;;;17.20;64.80;;;;;;4998118;28;20564;-51
2022/09/26 04:45:41;;;;;;;6.97;6.27;;;17.30;64.00;;;;;;5002804;28;20253;-52
2022/09/26 04:48:09;;;;;;;8.53;6.83;;;17.40;63.30;;;;;;5003305;28;20197;-47
2022/09/26 04:50:35;;;;;;;6.83;6.13;;;17.40;62.90;;;;;;5006601;28;20467;-51
2022/09/26 04:53:00;;;;;;;6.47;5.67;;;17.50;62.50;;;;;;5009401;28;20441;-47
2022/09/26 04:55:26;;;;;;;7.60;6.90;;;17.50;62.00;;;;;;5004547;28;20506;-47
2022/09/26 04:57:51;;;;;;;6.53;5.93;;;17.50;62.00;;;;;;5003714;28;20281;-47
2022/09/26 05:00:17;;;;;;;6.80;6.10;;;17.50;61.70;;;;;;5009250;28;20578;-48
2022/09/26 05:02:46;;;;;;;8.00;6.90;;;17.50;61.80;;;;;;5005690;28;20200;-52
2022/09/26 05:05:12;;;;;;;7.10;6.40;;;17.50;62.20;;;;;;5008852;28;20572;-52
2022/09/26 05:07:43;;;;;;;7.50;6.13;;;17.40;62.30;;;;;;5007275;28;20452;-47
2022/09/26 05:10:09;;;;;;;10.27;6.80;;;17.40;63.50;;;;;;5010731;28;20440;-48
2022/09/26 05:12:38;;;;;;;8.23;6.87;;;17.40;62.80;;;;;;5011234;28;20451;-52
2022/09/26 05:15:08;;;;;;;7.00;6.30;;;17.50;62.70;;;;;;5009822;28;20485;-51
2022/09/26 05:17:37;;;;;;;7.33;6.63;;;17.50;63.20;;;;;;5008565;28;20490;-49
2022/09/26 05:20:07;;;;;;;6.93;6.23;;;17.50;61.90;;;;;;5011631;28;20495;-50
2022/09/26 05:22:33;;;;;;;7.03;6.43;;;17.50;61.50;;;;;;5009762;28;20480;-48
2022/09/26 05:27:43;;;;;;;13.20;7.53;;;17.50;61.50;;;;;;5007697;28;20494;-47
2022/09/26 05:30:11;;;;;;;9.30;8.10;;;17.40;61.50;;;;;;5012428;28;20515;-51
2022/09/26 05:32:38;;;;;;;10.43;7.30;;;17.40;61.10;;;;;;5010174;28;20468;-50
2022/09/26 05:35:04;;;;;;;7.33;6.40;;;17.40;61.30;;;;;;5009634;28;20452;-47
2022/09/26 05:37:30;;;;;;;7.67;6.83;;;17.30;61.50;;;;;;5011900;28;20507;-47
2022/09/26 05:42:40;;;;;;;7.97;7.17;;;17.00;62.30;;;;;;5020506;28;20880;-47
2022/09/26 05:45:06;;;;;;;9.40;7.60;;;16.80;62.70;;;;;;5014203;28;20460;-47
2022/09/26 05:47:35;;;;;;;10.90;7.63;;;16.80;63.00;;;;;;5013554;28;20198;-48
2022/09/26 05:50:08;;;;;;;7.70;7.00;;;17.00;62.70;;;;;;5013825;28;20495;-48
2022/09/26 05:52:37;;;;;;;8.70;7.90;;;17.00;62.20;;;;;;5012453;28;20468;-48
2022/09/26 05:55:03;;;;;;;8.80;7.07;;;17.10;62.10;;;;;;5014006;28;20499;-47
2022/09/26 05:57:29;;;;;;;10.00;7.40;;;17.10;61.80;;;;;;5011633;28;20460;-47
2022/09/26 05:59:55;;;;;;;8.80;7.90;;;17.00;62.00;;;;;;5013465;28;20480;-48
2022/09/26 06:02:20;;;;;;;8.60;7.70;;;17.00;62.20;;;;;;5012831;28;20233;-47
2022/09/26 06:04:46;;;;;;;8.87;7.97;;;17.10;62.40;;;;;;5011277;28;20205;-48
2022/09/26 06:07:11;;;;;;;8.00;7.20;;;17.00;62.50;;;;;;5012523;28;20427;-47
2022/09/26 06:09:37;;;;;;;8.77;7.90;;;17.10;62.40;;;;;;5013398;28;20208;-47
2022/09/26 06:12:03;;;;;;;8.97;7.50;;;17.10;62.40;;;;;;5006945;28;20193;-47
2022/09/26 06:14:28;;;;;;;7.23;6.63;;;17.10;61.90;;;;;;5033414;28;20251;-47
2022/09/26 06:16:54;;;;;;;8.40;7.60;;;17.10;61.90;;;;;;5017302;28;20198;-48
2022/09/26 06:19:19;;;;;;;8.80;7.90;;;17.10;61.70;;;;;;5013103;28;20702;-47
2022/09/26 06:21:45;;;;;;;8.37;7.67;;;17.10;62.30;;;;;;5012975;28;20193;-47
2022/09/26 06:24:12;;;;;;;8.50;7.53;;;17.10;62.40;;;;;;5022010;28;20312;-47
2022/09/26 06:26:37;;;;;;;8.10;7.13;;;17.20;62.50;;;;;;5014493;28;20847;-47
2022/09/26 06:29:04;;;;;;;10.10;7.53;;;16.80;63.40;;;;;;5013209;28;20440;-48
2022/09/26 06:31:30;;;;;;;8.83;7.83;;;16.50;64.80;;;;;;5012781;28;20205;-47
2022/09/26 06:33:57;;;;;;;9.33;7.00;;;16.50;65.20;;;;;;5013209;28;20440;-47
2022/09/26 06:36:23;;;;;;;7.90;7.10;;;16.30;65.90;;;;;;5011746;28;20484;-47
2022/09/26 06:38:49;;;;;;;9.97;7.97;;;16.50;66.40;;;;;;5010129;28;20994;-49
2022/09/26 06:41:15;;;;;;;7.60;6.83;;;16.70;65.90;;;;;;5012933;28;20784;-49
2022/09/26 06:43:43;;;;;;;7.23;6.63;;;16.90;65.00;;;;;;5013175;28;20512;-47
2022/09/26 06:46:13;;;;;;;7.13;5.90;;;17.00;64.90;;;;;;5012504;28;20186;-48
2022/09/26 06:48:39;;;;;;;7.30;5.30;;;17.30;64.10;;;;;;5011377;28;20448;-49
2022/09/26 06:51:06;;;;;;;6.50;5.67;;;17.40;63.50;;;;;;5010977;28;20460;-47
2022/09/26 06:53:33;;;;;;;7.63;5.43;;;17.70;63.50;;;;;;5011096;28;20932;-46
2022/09/26 06:55:59;;;;;;;5.70;5.20;;;17.60;62.00;;;;;;5010352;28;20526;-49
2022/09/26 06:58:25;;;;;;;6.50;5.00;;;17.10;60.90;;;;;;5012418;28;20433;-52
2022/09/26 07:00:50;;;;;;;6.00;4.50;;;17.10;62.50;;;;;;5012050;28;20234;-51
2022/09/26 07:03:16;;;;;;;4.87;4.43;;;17.00;62.20;;;;;;5012935;28;20186;-50
2022/09/26 07:05:44;;;;;;;4.47;4.13;;;17.30;62.00;;;;;;5009285;28;20876;-50
2022/09/26 07:08:10;;;;;;;5.70;4.57;;;17.40;61.00;;;;;;5011695;28;20194;-52
2022/09/26 07:10:37;;;;;;;5.03;4.33;;;17.30;60.00;;;;;;5008005;28;20445;-50
2022/09/26 07:13:06;;;;;;;4.50;4.03;;;17.40;60.50;;;;;;5006231;28;20457;-51
2022/09/26 07:15:33;;;;;;;5.80;4.80;;;17.70;60.60;;;;;;5010216;28;20805;-49
2022/09/26 07:18:01;;;;;;;5.27;4.63;;;17.90;60.40;;;;;;5011948;28;20937;-51
2022/09/26 07:20:32;;;;;;;4.27;3.87;;;18.00;60.30;;;;;;5011847;28;20485;-50
2022/09/26 07:23:05;;;;;;;4.90;3.63;;;18.10;59.70;;;;;;5012438;28;20487;-52
2022/09/26 07:25:32;;;;;;;3.83;3.53;;;18.00;59.30;;;;;;5004951;28;20444;-47
2022/09/26 07:27:58;;;;;;;5.40;4.00;;;18.00;59.40;;;;;;5004992;28;20452;-49
2022/09/26 07:30:24;;;;;;;4.17;3.80;;;18.10;59.30;;;;;;5009602;28;20446;-48
2022/09/26 07:32:50;;;;;;;3.27;3.03;;;18.20;59.50;;;;;;5005472;28;20452;-47
2022/09/26 07:35:16;;;;;;;5.87;3.47;;;18.30;58.60;;;;;;5006422;28;20499;-45
2022/09/26 07:37:42;;;;;;;3.83;3.43;;;18.40;58.30;;;;;;5005035;28;20204;-51
2022/09/26 07:40:09;;;;;;;4.80;4.20;;;18.20;56.80;;;;;;5010469;28;20542;-51
2022/09/26 07:42:37;;;;;;;3.67;3.37;;;18.20;57.60;;;;;;5003024;28;20441;-50
2022/09/26 07:45:04;;;;;;;3.73;3.43;;;18.40;57.50;;;;;;5009569;28;20457;-48
2022/09/26 07:50:18;;;;;;;4.27;3.90;;;18.70;57.00;;;;;;5003942;28;20448;-47
2022/09/26 07:52:46;;;;;;;3.30;3.07;;;18.60;56.30;;;;;;5010850;28;22281;-50
2022/09/26 07:55:15;;;;;;;10.30;5.20;;;18.30;57.70;;;;;;5006368;28;20451;-49
2022/09/26 07:57:41;;;;;;;3.83;3.53;;;18.50;58.00;;;;;;5006045;28;20440;-47
2022/09/26 08:00:11;;;;;;;3.70;3.40;;;18.60;57.80;;;;;;5011680;28;21163;-47
2022/09/26 08:02:41;;;;;;;4.00;3.70;;;18.80;57.80;;;;;;5009388;28;20201;-47
2022/09/26 08:05:09;;;;;;;3.77;3.20;;;18.80;57.50;;;;;;5004611;28;20781;-46
2022/09/26 08:07:35;;;;;;;3.90;3.60;;;19.00;57.90;;;;;;5006839;28;20495;-51
2022/09/26 08:10:03;;;;;;;3.50;3.20;;;19.10;58.20;;;;;;5010891;28;20507;-47
2022/09/26 08:12:34;;;;;;;4.43;4.00;;;19.00;56.20;;;;;;5006635;28;20928;-48
2022/09/26 08:15:00;;;;;;;4.43;2.60;;;18.90;56.40;;;;;;5005869;28;20436;-49
2022/09/26 08:17:31;;;;;;;3.60;3.20;;;18.90;56.10;;;;;;5009839;28;20505;-47
2022/09/26 08:19:57;;;;;;;3.50;3.00;;;18.80;56.60;;;;;;4996302;28;20236;-47
2022/09/26 08:22:22;;;;;;;5.00;3.30;;;18.80;56.50;;;;;;5006097;28;20825;-50
2022/09/26 08:24:49;;;;;;;3.37;3.00;;;18.80;56.70;;;;;;5004031;28;20920;-48
2022/09/26 08:27:16;;;;;;;4.73;3.10;;;18.80;56.90;;;;;;5006690;28;20204;-51
2022/09/26 08:29:46;;;;;;;3.73;3.33;;;18.90;56.90;;;;;;5008727;28;20517;-48
2022/09/26 08:32:12;;;;;;;3.53;3.10;;;18.90;56.70;;;;;;5007266;28;21006;-46
2022/09/26 08:34:39;;;;;;;3.80;2.53;;;19.00;56.50;;;;;;5004300;28;20468;-47
2022/09/26 08:37:05;;;;;;;3.47;3.07;;;18.90;56.20;;;;;;5004612;28;20191;-46
2022/09/26 08:39:31;;;;;;;2.83;2.57;;;19.10;56.20;;;;;;5002515;28;20476;-47
2022/09/26 08:42:28;;;;;;;2.90;2.70;;;19.00;56.20;;;;;;5006281;28;20339;-51
2022/09/26 08:46:28;;;;;;;2.90;2.70;;;19.10;56.00;;;;;;5004753;28;20620;-47
2022/09/26 08:48:05;;;;;;;3.00;2.70;;;19.30;55.80;;;;;;5009406;28;20474;-46
2022/09/26 08:50:52;;;;;;;2.57;2.37;;;19.30;55.00;;;;;;5012634;28;20429;-47
2022/09/26 08:53:45;;;;;;;3.37;2.47;;;19.30;55.00;;;;;;5008691;28;20478;-46
2022/09/26 08:56:20;;;;;;;2.57;2.37;;;19.40;54.70;;;;;;4998145;28;20457;-47
2022/09/26 08:58:51;;;;;;;3.33;2.90;;;19.60;54.90;;;;;;5012179;28;20456;-48
2022/09/26 09:01:27;;;;;;;4.23;2.50;;;19.70;54.50;;;;;;5005311;28;20457;-49
2022/09/26 09:04:10;;;;;;;2.60;2.37;;;19.80;53.90;;;;;;5015389;28;20522;-46
2022/09/26 09:06:36;;;;;;;2.97;2.10;;;20.00;53.70;;;;;;5005563;28;20490;-46
2022/09/26 09:09:02;;;;;;;3.33;2.17;;;20.10;53.60;;;;;;5006187;28;20464;-48
2022/09/26 09:12:05;;;;;;;5.20;2.47;;;20.20;53.10;;;;;;5009619;28;20507;-47
2022/09/26 09:15:05;;;;;;;3.30;2.50;;;20.20;52.40;;;;;;5011198;28;20190;-46
2022/09/26 09:17:43;;;;;;;3.87;2.50;;;20.10;52.10;;;;;;5008337;28;20445;-46
2022/09/26 09:20:27;;;;;;;2.90;2.60;;;20.00;50.90;;;;;;5010056;28;20594;-48
2022/09/26 09:23:27;;;;;;;4.80;2.30;;;20.30;51.00;;;;;;5019747;28;20491;-46
2022/09/26 09:26:08;;;;;;;4.00;2.37;;;20.60;50.80;;;;;;5012449;28;21022;-50
2022/09/26 09:28:36;;;;;;;3.13;2.80;;;20.70;50.50;;;;;;5015967;28;20444;-47
2022/09/26 09:31:12;;;;;;;2.63;2.33;;;20.90;49.90;;;;;;5010425;28;20502;-47
2022/09/26 09:33:43;;;;;;;4.30;2.30;;;21.00;49.80;;;;;;5014286;28;20510;-47
2022/09/26 09:36:17;;;;;;;3.53;2.13;;;21.10;50.10;;;;;;4997508;28;20514;-49
2022/09/26 09:38:46;;;;;;;3.80;2.07;;;21.10;49.00;;;;;;5008227;28;20476;-50
2022/09/26 09:41:13;;;;;;;2.73;2.47;;;21.20;48.70;;;;;;5010663;28;20448;-49
2022/09/26 09:43:46;;;;;;;4.10;2.70;;;21.30;48.50;;;;;;5010609;28;20422;-49
2022/09/26 09:46:34;;;;;;;3.30;2.53;;;21.40;48.10;;;;;;5009051;28;20461;-50
2022/09/26 09:49:09;;;;;;;3.47;2.20;;;21.40;47.90;;;;;;5010480;28;20445;-49
2022/09/26 09:51:38;;;;;;;4.07;2.13;;;21.20;48.40;;;;;;5004527;28;21039;-47
2022/09/26 09:54:18;;;;;;;2.80;2.27;;;21.20;48.60;;;;;;5006861;28;20475;-49
2022/09/26 09:57:19;;;;;;;2.47;2.27;;;21.20;48.30;;;;;;5008715;28;20936;-48
2022/09/26 10:00:10;;;;;;;3.07;2.33;;;21.20;47.50;;;;;;5001730;28;20507;-48
2022/09/26 10:03:10;;;;;;;3.40;2.27;;;21.10;47.90;;;;;;5005821;28;20453;-50
2022/09/26 10:05:41;;;;;;;4.73;2.33;;;21.20;47.80;;;;;;5007004;28;20459;-52
2022/09/26 10:08:13;;;;;;;2.70;2.50;;;21.40;48.50;;;;;;5013087;28;20456;-50
2022/09/26 10:11:07;;;;;;;4.37;2.07;;;21.50;48.00;;;;;;5008215;28;20445;-51
2022/09/26 10:13:34;;;;;;;2.97;1.80;;;21.30;47.80;;;;;;5006651;28;20448;-52
2022/09/26 10:16:04;;;;;;;2.43;2.20;;;21.50;47.70;;;;;;5008974;28;20445;-51
2022/09/26 10:18:30;;;;;;;2.13;1.80;;;21.60;46.40;;;;;;5021683;28;20444;-47
2022/09/26 10:21:09;;;;;;;3.23;2.23;;;21.50;46.50;;;;;;5006959;28;20519;-51
2022/09/26 10:23:40;;;;;;;5.10;2.03;;;21.60;46.60;;;;;;5005208;28;20721;-48
2022/09/26 10:26:08;;;;;;;2.00;1.80;;;21.50;45.40;;;;;;5006381;28;21494;-49
2022/09/26 10:28:41;;;;;;;3.00;2.03;;;21.70;45.40;;;;;;5003650;28;20449;-47
2022/09/26 10:31:09;;;;;;;2.10;1.90;;;21.80;44.70;;;;;;5003991;28;20448;-47
2022/09/26 10:33:42;;;;;;;2.90;1.90;;;21.80;44.80;;;;;;5007246;28;20449;-51
2022/09/26 10:36:10;;;;;;;2.30;2.10;;;21.90;44.90;;;;;;5007856;28;20485;-47
2022/09/26 10:41:41;;;;;;;1.50;1.40;;;21.60;44.90;;;;;;5007708;28;20465;-47
2022/09/26 10:44:21;;;;;;;3.37;2.10;;;21.60;46.00;;;;;;5011795;28;20444;-48
2022/09/26 10:46:50;;;;;;;2.40;2.00;;;21.60;45.10;;;;;;5004842;28;20448;-47
2022/09/26 10:49:17;;;;;;;2.90;2.10;;;21.40;45.00;;;;;;5005152;28;20480;-47
2022/09/26 10:51:54;;;;;;;9.07;1.90;;;21.40;45.70;;;;;;5004305;28;20444;-48
2022/09/26 10:54:32;;;;;;;1.63;1.53;;;21.30;45.40;;;;;;5007242;28;20587;-46
2022/09/26 10:56:58;;;;;;;3.27;1.73;;;21.40;47.00;;;;;;5010476;28;20507;-48
2022/09/26 10:59:30;;;;;;;2.17;1.57;;;21.70;46.20;;;;;;5010954;28;21131;-50
2022/09/26 11:01:57;;;;;;;2.70;1.90;;;21.80;44.70;;;;;;5008185;28;20445;-49
2022/09/26 11:07:25;;;;;;;2.30;1.80;;;22.10;44.20;;;;;;5008218;28;20548;-49
2022/09/26 11:09:52;;;;;;;2.40;1.80;;;22.10;43.70;;;;;;5004545;28;20969;-47
2022/09/26 11:12:24;;;;;;;1.50;1.40;;;22.20;43.40;;;;;;5009990;28;20444;-48
2022/09/26 11:14:55;;;;;;;2.10;1.50;;;22.20;42.60;;;;;;5009178;28;20453;-50
2022/09/26 11:17:21;;;;;;;2.80;1.60;;;22.20;43.40;;;;;;5011748;28;20440;-48
2022/09/26 11:19:57;;;;;;;2.60;1.60;;;22.10;42.60;;;;;;5010194;28;20492;-50
2022/09/26 11:22:40;;;;;;;2.73;1.50;;;22.00;42.50;;;;;;5009053;28;20476;-47
2022/09/26 11:25:13;;;;;;;3.67;1.90;;;21.80;42.40;;;;;;5008831;28;20850;-48
2022/09/26 11:27:49;;;;;;;3.10;1.60;;;21.80;42.40;;;;;;5008810;28;20552;-47
2022/09/26 11:30:18;;;;;;;4.13;1.77;;;21.60;42.60;;;;;;5015048;28;20459;-47
2022/09/26 11:32:48;;;;;;;5.43;1.80;;;21.50;42.80;;;;;;5020532;28;20510;-47
2022/09/26 11:35:19;;;;;;;1.80;1.60;;;21.30;42.90;;;;;;5008543;28;20452;-47
2022/09/26 11:38:02;;;;;;;1.40;1.30;;;21.40;43.00;;;;;;5010290;28;20429;-48
2022/09/26 11:40:56;;;;;;;3.63;1.47;;;21.20;42.60;;;;;;5007817;28;20623;-47
2022/09/26 11:43:39;;;;;;;4.73;1.20;;;21.20;43.10;;;;;;5006569;28;20449;-47
2022/09/26 11:46:45;;;;;;;2.07;1.40;;;21.00;42.80;;;;;;5009541;28;20441;-48
2022/09/26 11:49:36;;;;;;;1.57;1.07;;;20.90;42.90;;;;;;5010494;28;20457;-47
2022/09/26 11:52:34;;;;;;;1.13;0.90;;;20.70;41.90;;;;;;5008326;28;20453;-46
2022/09/26 11:55:00;;;;;;;1.73;1.20;;;20.90;41.20;;;;;;4971933;28;20449;-46
2022/09/26 11:57:50;;;;;;;2.63;1.60;;;20.90;41.80;;;;;;5002475;28;20456;-49
2022/09/26 12:00:33;;;;;;;1.60;1.50;;;20.90;42.30;;;;;;5007155;28;20499;-47
2022/09/26 12:03:45;;;;;;;1.60;1.50;;;20.90;42.70;;;;;;5007670;28;20453;-51
2022/09/26 12:06:43;;;;;;;2.30;1.20;;;21.30;43.30;;;;;;4991874;28;20456;-47
2022/09/26 12:09:17;;;;;;;1.17;1.13;;;21.30;41.50;;;;;;5007655;28;20932;-47
2022/09/26 12:11:58;;;;;;;2.10;0.90;;;21.40;42.00;;;;;;5004115;28;20441;-47
2022/09/26 12:14:51;;;;;;;1.17;1.07;;;21.50;40.50;;;;;;5004821;28;20547;-47
2022/09/26 12:17:35;;;;;;;1.00;1.00;;;21.50;40.20;;;;;;5009022;28;20460;-46
2022/09/26 12:20:20;;;;;;;1.43;1.23;;;21.50;40.00;;;;;;5009000;28;20496;-48
2022/09/26 12:23:01;;;;;;;1.20;1.10;;;21.60;39.50;;;;;;5002880;28;20583;-48
2022/09/26 12:25:40;;;;;;;2.03;1.20;;;21.30;40.70;;;;;;5005816;28;20888;-47
2022/09/26 12:28:19;;;;;;;1.87;1.10;;;21.00;41.80;;;;;;5008112;28;20456;-46
2022/09/26 12:31:09;;;;;;;1.67;1.57;;;20.60;48.00;;;;;;5001706;28;20647;-46
2022/09/26 12:33:59;;;;;;;1.20;1.10;;;20.30;49.50;;;;;;5008334;28;20444;-47
2022/09/26 12:36:46;;;;;;;1.10;0.97;;;20.20;49.50;;;;;;5008142;28;20456;-46
2022/09/26 12:39:21;;;;;;;1.17;1.00;;;20.30;48.50;;;;;;5004696;28;20473;-46
2022/09/26 12:42:12;;;;;;;7.53;1.20;;;20.50;47.20;;;;;;5003406;28;20549;-47
2022/09/26 12:44:58;;;;;;;1.60;1.50;;;20.80;47.40;;;;;;5006994;28;20467;-47
2022/09/26 12:47:48;;;;;;;2.50;1.20;;;21.00;46.10;;;;;;5003231;28;22608;-46
2022/09/26 12:50:32;;;;;;;1.73;1.20;;;21.40;47.00;;;;;;5003173;28;20444;-49
2022/09/26 12:53:19;;;;;;;1.53;1.10;;;21.50;46.10;;;;;;5002111;28;20445;-46
2022/09/26 12:56:00;;;;;;;1.50;1.40;;;21.70;44.20;;;;;;5000559;28;20555;-46
2022/09/26 12:58:38;;;;;;;2.43;1.40;;;21.80;43.10;;;;;;5003876;28;20476;-46
2022/09/26 13:01:12;;;;;;;1.43;1.33;;;21.90;42.50;;;;;;5007791;28;20484;-47
2022/09/26 13:04:02;;;;;;;3.00;1.53;;;22.00;43.40;;;;;;5006072;28;20546;-51
2022/09/26 13:06:30;;;;;;;1.97;1.00;;;21.90;42.20;;;;;;5005913;28;20452;-51
2022/09/26 13:09:34;;;;;;;2.97;1.00;;;21.80;40.60;;;;;;4999999;28;20455;-46
2022/09/26 13:12:27;;;;;;;1.30;1.17;;;21.70;41.00;;;;;;5003460;28;20531;-47
2022/09/26 13:15:10;;;;;;;1.07;0.73;;;21.40;40.50;;;;;;5000630;28;20457;-47
2022/09/26 13:17:44;;;;;;;3.43;1.00;;;21.30;41.80;;;;;;5014327;28;20471;-46
2022/09/26 13:20:26;;;;;;;1.20;1.10;;;21.20;41.40;;;;;;5016368;28;20499;-46
2022/09/26 13:22:57;;;;;;;1.50;1.00;;;20.70;41.60;;;;;;5007966;28;20488;-46
2022/09/26 13:25:43;;;;;;;1.20;0.87;;;20.20;42.40;;;;;;5010458;28;20448;-47
2022/09/26 13:28:22;;;;;;;1.73;1.10;;;19.70;42.50;;;;;;5009866;28;20487;-46
2022/09/26 13:31:00;;;;;;;3.30;1.00;;;20.00;43.70;;;;;;5010351;28;20468;-47